Latest Weather Observations for Richmond

IDN60801

Issued at 9:35 pm EDT Sunday 23 November 2014 (issued every 30 minutes, with the page automatically refreshed every 10 minutes)

About weather observations | Map of weather stations | Latest weather observations for NSW | Other Formats
Station Details ID: 067105 Name: RICHMOND RAAF Lat: -33.60 Lon: 150.78 Height: 19.0 m
Data from the previous 72 hours. | See also: Recent months at Richmond
Date/Time
EDT
Temp
°C
App
Temp
°C
Dew
Point
Rel
Hum
%
Delta-T
°C
Wind Press
QNH
hPa
Press
MSL
hPa
Rain
since 9 am
mm
Dir
 
Spd
km/h
Gust
km/h
Spd
kts
Gust
kts
23/09:30pm 24.3 26.2 18.5 70 3.7 ENE 6 15 3 8 1013.2 1013.1 0.0
23/09:00pm 25.3 27.1 18.7 67 4.2 SE 7 11 4 6 1012.3 1012.2 0.0
23/08:30pm 25.6 25.6 19.0 67 4.2 SE 17 24 9 13 1012.0 1011.9 0.0
23/08:00pm 26.1 26.1 19.0 65 4.6 SSE 17 24 9 13 1011.6 1011.5 0.0
23/07:30pm 25.3 22.8 19.7 71 3.6 S 32 46 17 25 1009.9 1009.8 0.0
23/07:00pm 27.9 25.3 19.4 60 5.5 S 32 41 17 22 1008.1 1008.0 0.0
23/06:42pm 32.6 30.8 19.5 46 8.6 S 28 43 15 23 1006.8 1006.7 0.0
23/06:30pm 36.7 35.2 16.3 30 13.0 S 19 22 10 12 1006.0 1005.9 0.0
23/06:00pm 37.7 36.1 16.1 28 13.8 E 19 26 10 14 1004.9 1004.8 0.0
23/05:30pm 41.8 38.8 4.0 10 20.6 N 9 19 5 10 1004.8 1004.7 0.0
23/05:00pm 41.8 38.0 4.0 10 20.7 WSW 13 20 7 11 1005.0 1004.9 0.0
23/04:30pm 43.6 36.5 5.3 10 21.5 W 32 41 17 22 1005.1 1005.0 0.0
23/04:00pm 42.8 37.3 6.1 11 20.8 W 24 35 13 19 1005.1 1005.0 0.0
23/03:30pm 43.8 38.2 5.5 10 21.6 W 24 37 13 20 1005.3 1005.2 0.0
23/03:00pm 43.5 37.9 5.2 10 21.5 W 24 37 13 20 1005.7 1005.6 0.0
23/02:30pm 43.6 39.6 6.7 11 21.1 WNW 17 30 9 16 1006.1 1006.0 0.0
23/02:00pm 41.8 37.5 5.3 11 20.4 WNW 17 24 9 13 1006.4 1006.3 0.0
23/01:39pm 44.3 38.3 7.2 11 21.5 WNW 28 44 15 24 1006.6 1006.5 0.0
23/01:30pm 43.2 40.1 8.8 13 20.2 NNW 15 22 8 12 1006.8 1006.7 0.0
23/01:00pm 41.3 38.5 11.3 17 18.2 NE 17 26 9 14 1007.4 1007.3 0.0
23/12:30pm 40.5 40.5 15.3 22 16.0 NE 9 17 5 9 1007.9 1007.8 0.0
23/12:00pm 36.5 36.1 18.1 33 12.0 E 17 24 9 13 1008.7 1008.6 0.0
23/11:30am 34.0 35.1 18.9 41 9.9 ESE 11 17 6 9 1009.6 1009.5 0.0
23/11:00am 31.2 32.9 18.5 46 8.2 SE 7 13 4 7 1010.2 1010.1 0.0
23/10:30am 29.4 30.8 17.9 50 7.3 SSE 7 15 4 8 1010.5 1010.4 0.0
23/10:00am 27.6 29.4 18.3 57 5.9 SE 6 9 3 5 1011.0 1010.9 0.0
23/09:30am 26.2 28.0 18.3 61 5.0 ENE 6 9 3 5 1011.2 1011.1 0.0
23/09:00am 24.5 26.2 18.4 69 3.9 ENE 7 11 4 6 1011.3 1011.2 0.0
23/08:30am 24.1 26.2 18.1 69 3.8 ENE 4 9 2 5 1011.2 1011.1 0.0
23/08:00am 22.3 24.9 18.3 78 2.5 N 2 7 1 4 1011.3 1011.2 0.0
23/07:30am 20.8 23.8 18.4 86 1.5 CALM 0 0 0 0 1011.3 1011.2 0.0
23/07:00am 18.6 19.9 17.6 94 0.6 N 7 9 4 5 1011.4 1011.3 0.0
23/06:30am 17.8 20.3 17.2 96 0.4 CALM 0 0 0 0 1011.2 1011.1 0.0
23/06:00am 17.2 18.7 16.6 96 0.4 NW 4 7 2 4 1011.2 1011.1 0.0
23/05:39am 17.4 18.6 16.9 97 0.3 W 6 7 3 4 1011.2 1011.1 0.0
23/05:30am 17.2 18.3 16.7 97 0.3 W 6 9 3 5 1011.0 1010.9 0.0
23/05:11am 17.1 18.2 16.6 97 0.3 NW 6 7 3 4 1010.8 1010.7 0.0
23/05:10am 17.0 18.1 16.5 97 0.3 NW 6 7 3 4 1010.7 1010.6 0.0
23/05:00am 17.0 19.2 16.4 96 0.4 CALM 0 0 0 0 1010.8 1010.7 0.0
23/04:30am 16.8 18.7 15.8 94 0.6 CALM 0 0 0 0 1010.9 1010.8 0.0
23/04:01am 17.0 17.7 16.2 95 0.5 SSW 7 9 4 5 1010.7 1010.6 0.0
23/04:00am 17.0 17.7 16.0 94 0.6 SSW 7 9 4 5 1010.6 1010.5 0.0
23/03:30am 17.8 20.1 16.7 93 0.7 CALM 0 0 0 0 1010.6 1010.5 0.0
23/03:00am 18.1 20.6 17.3 95 0.5 CALM 0 0 0 0 1010.7 1010.6 0.0
23/02:30am 18.1 19.8 17.1 94 0.6 NW 4 6 2 3 1011.1 1011.0 0.0
23/02:00am 18.0 20.1 16.3 90 1.0 CALM 0 0 0 0 1011.6 1011.5 0.0
23/01:30am 18.7 21.0 16.8 89 1.1 CALM 0 0 0 0 1011.8 1011.7 0.0
23/01:00am 19.1 20.4 17.2 89 1.2 S 6 7 3 4 1012.0 1011.9 0.0
23/12:30am 19.5 21.0 17.5 88 1.2 SSE 6 7 3 4 1012.4 1012.3 0.0
23/12:00am 19.8 22.3 17.2 85 1.6 WNW 0 6 0 3 1012.7 1012.6 0.0
 
Date/Time
EDT
Temp
°C
App
Temp
°C
Dew
Point
Rel
Hum
%
Delta-T
°C
Wind Press
QNH
hPa
Press
MSL
hPa
Rain
since 9 am
mm
Dir
 
Spd
km/h
Gust
km/h
Spd
kts
Gust
kts
22/11:30pm 20.3 23.0 17.7 85 1.6 CALM 0 0 0 0 1013.0 1012.9 0.0
22/11:00pm 20.3 21.6 17.5 84 1.7 NE 7 9 4 5 1013.0 1012.9 0.0
22/10:30pm 20.7 22.2 17.7 83 1.8 E 6 7 3 4 1013.4 1013.3 0.0
22/10:00pm 20.7 21.5 17.3 81 2.1 E 9 13 5 7 1013.2 1013.1 0.0
22/09:30pm 21.3 21.8 17.5 79 2.3 E 11 15 6 8 1013.1 1013.0 0.0
22/09:00pm 21.7 21.8 17.5 77 2.6 E 13 15 7 8 1012.8 1012.7 0.0
22/08:30pm 22.2 22.2 17.3 74 3.0 E 13 17 7 9 1012.1 1012.0 0.0
22/08:00pm 23.1 23.0 16.9 68 3.8 ESE 13 15 7 8 1011.8 1011.7 0.0
22/07:30pm 24.0 23.8 16.8 64 4.4 ESE 13 19 7 10 1011.4 1011.3 0.0
22/07:00pm 24.6 23.6 16.6 61 4.9 E 17 22 9 12 1010.9 1010.8 0.0
22/06:30pm 26.4 25.0 16.6 55 6.1 E 19 24 10 13 1010.4 1010.3 0.0
22/06:00pm 27.4 26.2 17.0 53 6.5 E 19 26 10 14 1009.9 1009.8 0.0
22/05:30pm 28.4 26.9 16.7 49 7.3 E 20 26 11 14 1009.6 1009.5 0.0
22/05:00pm 29.3 26.2 16.5 46 8.0 ESE 28 37 15 20 1009.1 1009.0 0.0
22/04:30pm 31.5 28.8 16.6 40 9.4 SSE 26 32 14 17 1008.8 1008.7 0.0
22/04:00pm 33.1 31.8 13.7 31 11.8 ESE 13 19 7 10 1008.7 1008.6 0.0
22/03:30pm 33.5 32.7 14.0 30 11.9 ESE 11 20 6 11 1009.0 1008.9 0.0
22/03:00pm 32.9 31.9 14.5 33 11.3 E 13 22 7 12 1009.6 1009.5 0.0
22/02:30pm 32.2 30.1 14.8 35 10.7 ESE 19 22 10 12 1010.2 1010.1 0.0
22/02:00pm 30.9 29.5 14.5 37 10.0 ENE 15 24 8 13 1010.8 1010.7 0.0
22/01:30pm 29.8 28.0 14.4 39 9.3 E 17 33 9 18 1011.7 1011.6 0.0
22/01:00pm 28.8 27.7 14.2 40 8.8 E 13 24 7 13 1012.3 1012.2 0.0
22/12:30pm 28.8 27.6 15.0 43 8.4 E 15 24 8 13 1012.9 1012.8 0.0
22/12:00pm 27.7 28.0 15.0 45 7.7 N 7 19 4 10 1013.7 1013.6 0.0
22/11:30am 25.7 25.1 13.5 46 7.2 ENE 9 20 5 11 1014.0 1013.9 0.0
22/11:00am 25.3 23.9 13.5 48 6.9 N 13 24 7 13 1014.7 1014.6 0.0
22/10:30am 23.9 23.1 12.8 49 6.4 N 9 19 5 10 1015.3 1015.2 0.0
22/10:00am 23.9 23.8 13.2 51 6.2 W 6 9 3 5 1015.9 1015.8 0.0
22/09:30am 23.1 22.4 13.3 54 5.7 E 9 15 5 8 1016.1 1016.0 0.0
22/09:00am 21.6 20.7 12.5 56 5.1 SE 9 13 5 7 1016.2 1016.1 0.0
22/08:30am 22.2 21.7 13.8 59 4.9 SE 9 17 5 9 1015.9 1015.8 0.0
22/08:00am 21.2 20.8 14.1 64 4.1 SE 9 15 5 8 1015.8 1015.7 0.0
22/07:30am 20.8 20.5 14.5 67 3.7 S 9 15 5 8 1016.1 1016.0 0.0
22/07:00am 20.6 21.0 15.4 72 3.1 SSE 7 11 4 6 1015.7 1015.6 0.0
22/06:30am 19.9 20.4 15.1 74 2.8 SE 6 7 3 4 1015.4 1015.3 0.0
22/06:00am 18.9 19.0 14.4 75 2.6 S 7 9 4 5 1015.0 1014.9 0.0
22/05:30am 19.9 19.9 14.3 70 3.2 SSE 7 7 4 4 1014.6 1014.5 0.0
22/05:00am 19.9 19.6 14.5 71 3.1 SE 9 13 5 7 1014.1 1014.0 0.0
22/04:30am 20.4 19.9 15.0 71 3.2 SSE 11 15 6 8 1013.8 1013.7 0.0
22/04:00am 20.5 20.5 15.1 71 3.2 S 9 13 5 7 1013.9 1013.8 0.0
22/03:30am 20.6 20.6 15.2 71 3.2 S 9 13 5 7 1013.9 1013.8 0.0
22/03:00am 20.7 19.9 15.0 70 3.4 S 13 19 7 10 1014.1 1014.0 0.0
22/02:30am 20.8 19.6 15.1 70 3.4 S 15 20 8 11 1014.2 1014.1 0.0
22/02:00am 21.0 20.3 15.3 70 3.4 S 13 20 7 11 1014.2 1014.1 0.0
22/01:30am 21.1 20.0 15.2 69 3.5 S 15 20 8 11 1014.3 1014.2 0.0
22/01:00am 21.2 19.7 15.3 69 3.5 S 17 24 9 13 1014.3 1014.2 0.0
22/12:30am 21.4 20.1 15.7 70 3.4 S 17 22 9 12 1014.5 1014.4 0.0
22/12:00am 21.7 20.9 16.2 71 3.3 S 15 20 8 11 1014.5 1014.4 0.0
 
Date/Time
EDT
Temp
°C
App
Temp
°C
Dew
Point
Rel
Hum
%
Delta-T
°C
Wind Press
QNH
hPa
Press
MSL
hPa
Rain
since 9 am
mm
Dir
 
Spd
km/h
Gust
km/h
Spd
kts
Gust
kts
21/11:30pm 21.8 20.7 16.3 71 3.3 S 17 26 9 14 1014.2 1014.1 0.0
21/11:00pm 21.9 21.7 16.6 72 3.2 S 13 17 7 9 1014.2 1014.1 0.0
21/10:30pm 21.7 21.4 16.4 72 3.2 S 13 19 7 10 1013.7 1013.6 0.0
21/10:00pm 22.1 21.3 16.1 69 3.6 S 15 22 8 12 1013.4 1013.3 0.0
21/09:30pm 22.5 22.2 15.4 64 4.2 S 11 17 6 9 1012.8 1012.7 0.0
21/09:00pm 23.1 21.6 15.2 61 4.7 S 17 24 9 13 1012.1 1012.0 0.0
21/08:30pm 23.8 21.2 14.8 57 5.4 SSE 22 33 12 18 1011.4 1011.3 0.0
21/08:00pm 24.5 21.2 14.9 55 5.7 S 26 39 14 21 1010.3 1010.2 0.0
21/07:30pm 25.8 22.1 17.4 59 5.3 SSE 33 48 18 26 1008.7 1008.6 0.0
21/07:00pm 28.7 24.3 18.5 54 6.6 SE 39 50 21 27 1006.9 1006.8 0.0
21/06:50pm 31.2 28.1 17.5 44 8.7 SE 30 50 16 27 1006.3 1006.2 0.0
21/06:49pm 31.8 29.4 17.3 42 9.2 SE 26 50 14 27 1006.2 1006.1 0.0
21/06:30pm 36.8 30.9 5.9 15 16.9 SW 26 35 14 19 1005.2 1005.1 0.0
21/06:00pm 38.0 32.5 5.9 14 17.7 WSW 24 33 13 18 1004.4 1004.3 0.0
21/05:30pm 38.3 33.0 5.0 13 18.1 WSW 22 32 12 17 1003.7 1003.6 0.0
21/05:00pm 39.1 34.7 4.5 12 18.8 WSW 17 24 9 13 1003.6 1003.5 0.0
21/04:30pm 39.2 34.3 2.0 10 19.4 W 17 20 9 11 1003.4 1003.3 0.0
21/04:00pm 40.0 33.9 2.6 10 19.9 WSW 24 35 13 19 1003.3 1003.2 0.0
21/03:30pm 38.3 30.9 3.9 12 18.4 W 32 44 17 24 1003.4 1003.3 0.0
21/03:00pm 39.5 33.3 6.0 13 18.7 NW 28 39 15 21 1003.4 1003.3 0.0
21/02:30pm 40.0 33.5 6.4 13 18.8 WNW 30 43 16 23 1003.7 1003.6 0.0
21/02:20pm 40.0 33.6 5.2 12 19.2 WNW 28 46 15 25 1003.6 1003.5 0.0
21/02:00pm 39.8 32.6 5.1 12 19.1 NW 32 46 17 25 1003.7 1003.6 0.0
21/01:55pm 39.8 32.4 3.8 11 19.4 W 32 54 17 29 1003.8 1003.7 0.0
21/01:30pm 38.7 30.3 1.6 10 19.2 W 35 46 19 25 1004.1 1004.0 0.0
21/01:26pm 39.7 30.3 2.4 10 19.7 W 41 46 22 25 1004.1 1004.0 0.0
21/01:00pm 38.8 31.4 1.7 10 19.3 NW 30 43 16 23 1004.4 1004.3 0.0
21/12:30pm 38.3 32.6 5.0 13 18.1 WNW 24 35 13 19 1004.8 1004.7 0.0
21/12:09pm 38.2 31.6 6.0 14 17.8 W 30 48 16 26 1005.0 1004.9 0.0
21/12:00pm 38.2 32.7 6.0 14 17.8 WNW 24 35 13 19 1005.2 1005.1 0.0
21/11:30am 37.0 30.6 5.1 14 17.3 WNW 28 46 15 25 1005.5 1005.4 0.0
21/11:00am 36.8 31.3 5.9 15 17.0 NW 24 37 13 20 1005.8 1005.7 0.0
21/10:30am 36.5 32.5 6.6 16 16.5 WNW 17 30 9 16 1005.9 1005.8 0.0
21/10:00am 34.9 32.3 6.2 17 15.7 NW 9 17 5 9 1006.2 1006.1 0.0
21/09:30am 32.0 30.8 11.7 28 11.9 ENE 9 15 5 8 1006.6 1006.5 0.0
21/09:00am 30.9 29.7 12.8 33 10.8 ENE 11 17 6 9 1006.9 1006.8 0.0
21/08:30am 29.4 27.4 12.8 36 9.8 NNE 15 19 8 10 1007.2 1007.1 0.0
21/08:00am 27.4 27.1 15.4 48 7.3 NNE 11 17 6 9 1007.2 1007.1 0.0
21/07:30am 23.3 23.9 17.7 71 3.5 N 11 15 6 8 1007.3 1007.2 0.0
21/07:00am 21.5 22.7 18.3 82 2.0 NNW 9 13 5 7 1006.7 1006.6 0.0
21/06:30am 19.7 21.0 18.4 92 0.8 W 9 13 5 7 1007.1 1007.0 0.0
21/06:00am 20.2 21.0 18.1 88 1.3 NNE 11 15 6 8 1006.7 1006.6 0.0
21/05:30am 21.0 22.4 18.6 86 1.5 E 9 15 5 8 1006.6 1006.5 0.0
21/05:00am 20.7 22.3 17.9 84 1.7 SW 6 11 3 6 1006.8 1006.7 0.0
21/04:30am 20.6 22.4 18.2 86 1.5 WNW 6 9 3 5 1006.4 1006.3 0.0
21/04:00am 20.9 22.6 18.1 84 1.7 ESE 6 9 3 5 1005.6 1005.5 0.0
21/03:30am 20.6 22.4 18.4 87 1.4 SSE 6 9 3 5 1005.4 1005.3 0.0
21/03:00am 20.5 23.4 18.1 86 1.5 CALM 0 0 0 0 1005.6 1005.5 0.0
21/02:30am 20.3 23.0 17.7 85 1.6 CALM 0 0 0 0 1005.7 1005.6 0.0
21/02:00am 21.1 23.7 17.5 80 2.2 CALM 0 0 0 0 1006.0 1005.9 0.0
21/01:30am 21.5 24.4 18.3 82 2.0 CALM 0 0 0 0 1006.4 1006.3 0.0
21/01:00am 21.4 24.2 18.0 81 2.1 CALM 0 0 0 0 1006.7 1006.6 0.0
21/12:30am 21.7 23.5 18.3 81 2.1 N 6 6 3 3 1007.1 1007.0 0.0
21/12:00am 21.9 24.3 17.9 78 2.5 N 2 7 1 4 1007.5 1007.4 0.0
 
Date/Time
EDT
Temp
°C
App
Temp
°C
Dew
Point
Rel
Hum
%
Delta-T
°C
Wind Press
QNH
hPa
Press
MSL
hPa
Rain
since 9 am
mm
Dir
 
Spd
km/h
Gust
km/h
Spd
kts
Gust
kts
20/11:30pm 22.9 25.2 17.6 72 3.3 SW 2 6 1 3 1007.9 1007.8 0.0
20/11:00pm 23.4 25.5 17.2 68 3.8 WSW 2 7 1 4 1008.1 1008.0 0.0
20/10:30pm 24.2 26.8 17.4 65 4.2 CALM 0 0 0 0 1008.0 1007.9 0.0
20/10:00pm 24.6 26.5 17.6 65 4.4 WSW 4 6 2 3 1008.1 1008.0 0.0

Other Formats:

Comma delimited format used in spreadsheet applications
http://www.bom.gov.au/fwo/IDN60801/IDN60801.95753.axf

JavaScript Object Notation format (JSON) in row-major order
http://www.bom.gov.au/fwo/IDN60801/IDN60801.95753.json